Faust — V2NA4 — position and weather

sailwx.info

Track history (hours):
 
Tides and Currents Weather Stations Pressure Air Temp Water Temp Dewpoint Dewpoint Depression Visibility Wind Speed Wind Dir Waves Ship Positions

Faust

Last reported at 2018-Aug-21 04:03 UTC. Time now 2018-Aug-21 04:21 UTC.
Position N 41°36' E 002°50'.

Length 99 m; draft 4.1 m.

Type: Ship. MMSI: 304302000.

Date/timePositionNaut miles runAvg speedWind from/ knotsBaromVisibWave heightAir tempDewpointWater temp
2018-Aug-21 04:03N 41°36' E 002°50'110.8
2018-Aug-21 04:00N 41°36' E 002°49'1510.6
2018-Aug-21 02:34N 41°26' E 002°33'110.8
2018-Aug-21 02:29N 41°26' E 002°32'510.9
2018-Aug-21 02:03N 41°23' E 002°27'010.9
2018-Aug-21 02:00N 41°23' E 002°27'510.9
2018-Aug-21 01:30N 41°19' E 002°21'511.3
2018-Aug-21 01:03N 41°16' E 002°15'111.3
2018-Aug-21 01:00N 41°16' E 002°15'510.9
2018-Aug-21 00:30N 41°13' E 002°09'510.7
2018-Aug-21 00:03N 41°10' E 002°03'110.8
2018-Aug-21 00:00N 41°10' E 002°03'510.7
2018-Aug-20 23:30N 41°07' E 001°57'510.7
2018-Aug-20 23:03N 41°04' E 001°51'110.6
2018-Aug-20 23:00N 41°04' E 001°51'510.6
2018-Aug-20 22:30N 41°01' E 001°45'11911.3
2018-Aug-20 11:56N 39°39' W 000°08'4 8.3
2018-Aug-20 11:30N 39°38' W 000°13'  
2018-Aug-18 05:36N 39°38' W 000°13'2 8.2
2018-Aug-18 05:25N 39°37' W 000°12'122 8.3
2018-Aug-17 14:38N 41°01' E 001°43'1 9.3
2018-Aug-17 14:30N 41°02' E 001°45'9 9.3
2018-Aug-17 13:30N 41°07' E 001°55'5 9.4
2018-Aug-17 13:00N 41°10' E 002°00'4 8.9
2018-Aug-17 12:30N 41°12' E 002°05'4 8.7
2018-Aug-17 12:00N 41°14' E 002°10'4 9.1
2018-Aug-17 11:30N 41°16' E 002°15'5 9.3
2018-Aug-17 11:00N 41°19' E 002°20'5 9.1
2018-Aug-17 10:29N 41°22' E 002°25'14210.0
2018-Aug-16 20:19N 43°04' E 004°39'410.1
2018-Aug-16 19:58N 43°06' E 004°42'510.0
2018-Aug-16 19:27N 43°10' E 004°47'11 9.9
2018-Aug-16 18:23N 43°18' E 004°57'3 8.6
2018-Aug-16 17:59N 43°21' E 004°58'4 9.1
2018-Aug-16 17:30N 43°24' E 004°54'2 2.8
2018-Aug-16 16:55N 43°26' E 004°54'0 0.0
2018-Aug-16 16:28N 43°26' E 004°54'0 0.0
2018-Aug-16 15:58N 43°26' E 004°54'0 0.0
2018-Aug-16 15:28N 43°26' E 004°54'0 0.0
2018-Aug-16 14:55N 43°26' E 004°54'0 0.0
2018-Aug-16 14:28N 43°26' E 004°54'0 0.0
2018-Aug-16 13:58N 43°26' E 004°54'0 0.0
2018-Aug-16 13:28N 43°26' E 004°54'0 0.0
2018-Aug-16 12:55N 43°26' E 004°54'0 0.0
2018-Aug-16 12:28N 43°26' E 004°54'0 0.0
2018-Aug-16 11:58N 43°26' E 004°54'0 0.0
2018-Aug-16 11:28N 43°26' E 004°54'0 0.0
2018-Aug-16 10:58N 43°26' E 004°54'0 0.0
2018-Aug-16 10:28N 43°26' E 004°54'0 0.0
2018-Aug-16 09:58N 43°26' E 004°54'0 0.0
2018-Aug-16 09:28N 43°26' E 004°54'0 0.0
2018-Aug-16 08:58N 43°26' E 004°54'0 0.0
2018-Aug-16 08:28N 43°26' E 004°54'0 0.0
2018-Aug-16 07:58N 43°26' E 004°54'0 0.0
2018-Aug-16 07:28N 43°26' E 004°54'0 0.0
2018-Aug-16 06:58N 43°26' E 004°54'0 0.0
2018-Aug-16 06:28N 43°26' E 004°54'0 0.0
2018-Aug-16 05:58N 43°26' E 004°54'0 0.0
2018-Aug-16 05:28N 43°26' E 004°54'0 0.0
2018-Aug-16 04:58N 43°26' E 004°54'0 0.0
2018-Aug-16 04:28N 43°26' E 004°54'0 0.0
2018-Aug-16 03:58N 43°26' E 004°54'0 0.0
2018-Aug-16 03:28N 43°26' E 004°54'0 0.0
2018-Aug-16 02:58N 43°26' E 004°54'0 0.0
2018-Aug-16 02:28N 43°26' E 004°54'0 0.0
2018-Aug-16 01:58N 43°26' E 004°54'0 0.0
2018-Aug-16 01:28N 43°26' E 004°54'0 0.0
2018-Aug-16 00:58N 43°26' E 004°54'0 0.0
2018-Aug-16 00:28N 43°26' E 004°54'0 0.0
2018-Aug-15 23:58N 43°26' E 004°54'0 0.0
2018-Aug-15 23:28N 43°26' E 004°54'0 0.0
2018-Aug-15 22:58N 43°26' E 004°54'0 0.0
2018-Aug-15 22:28N 43°26' E 004°54'0 0.0
2018-Aug-15 21:58N 43°26' E 004°54'0 0.0
2018-Aug-15 21:28N 43°26' E 004°54'0 0.0
2018-Aug-15 20:58N 43°26' E 004°54'0 0.0
2018-Aug-15 20:28N 43°26' E 004°54'0 0.0
2018-Aug-15 19:58N 43°26' E 004°54'0 0.0
2018-Aug-15 19:28N 43°26' E 004°54'0 0.0
2018-Aug-15 18:58N 43°26' E 004°54'0 0.0
2018-Aug-15 18:28N 43°26' E 004°54'0 0.0
2018-Aug-15 17:58N 43°26' E 004°54'0 0.0
2018-Aug-15 17:28N 43°26' E 004°54'0 0.0
2018-Aug-15 16:58N 43°26' E 004°54'0 0.0
2018-Aug-15 16:25N 43°26' E 004°54'0 0.0
2018-Aug-15 15:58N 43°26' E 004°54'0 0.0
2018-Aug-15 15:28N 43°26' E 004°54'0 0.0
2018-Aug-15 14:58N 43°26' E 004°54'0 0.0
2018-Aug-15 14:28N 43°26' E 004°54'0 0.0
2018-Aug-15 13:58N 43°26' E 004°54'0 0.0
2018-Aug-15 13:25N 43°26' E 004°54'0 0.0
2018-Aug-15 12:58N 43°26' E 004°54'0 0.0
2018-Aug-15 12:28N 43°26' E 004°54'0 0.0
2018-Aug-15 11:58N 43°26' E 004°54'0 0.0
2018-Aug-15 11:28N 43°26' E 004°54'0 0.0
2018-Aug-15 10:58N 43°26' E 004°54'0 0.0
2018-Aug-15 10:28N 43°26' E 004°54'0 0.0
2018-Aug-15 09:58N 43°26' E 004°54'0 0.0
2018-Aug-15 09:28N 43°26' E 004°54'0 0.0
2018-Aug-15 08:58N 43°26' E 004°54'0 0.0
2018-Aug-15 08:25N 43°26' E 004°54'0 0.0
2018-Aug-15 07:58N 43°26' E 004°54'0 0.0
2018-Aug-15 07:28N 43°26' E 004°54'0 0.0
2018-Aug-15 06:58N 43°26' E 004°54'0 0.0
2018-Aug-15 06:28N 43°26' E 004°54'0 0.0
2018-Aug-15 05:58N 43°26' E 004°54'0 0.0
2018-Aug-15 05:28N 43°26' E 004°54'0 0.0
2018-Aug-15 04:58N 43°26' E 004°54'0 0.0
2018-Aug-15 04:28N 43°26' E 004°54'0 0.0
2018-Aug-15 03:58N 43°26' E 004°54'0 0.0
2018-Aug-15 03:28N 43°26' E 004°54'0 0.0
2018-Aug-15 02:58N 43°26' E 004°54'0 0.0
2018-Aug-15 02:28N 43°26' E 004°54'0 0.0
2018-Aug-15 01:58N 43°26' E 004°54'0 0.0
2018-Aug-15 01:28N 43°26' E 004°54'0 0.0
2018-Aug-15 00:58N 43°26' E 004°54'0 0.0
2018-Aug-15 00:28N 43°26' E 004°54'0 0.0
2018-Aug-14 23:58N 43°26' E 004°54'0 0.0
2018-Aug-14 23:28N 43°26' E 004°54'0 0.0
2018-Aug-14 22:58N 43°26' E 004°54'0 0.0
2018-Aug-14 22:28N 43°26' E 004°54'0 0.0
2018-Aug-14 21:55N 43°26' E 004°54'0 0.0
2018-Aug-14 21:28N 43°26' E 004°54'0 0.0
2018-Aug-14 20:58N 43°26' E 004°54'0 0.0
2018-Aug-14 20:28N 43°26' E 004°54'0 0.0
2018-Aug-14 19:58N 43°26' E 004°54'0 0.0
2018-Aug-14 19:28N 43°26' E 004°54'0 0.0
2018-Aug-14 18:58N 43°26' E 004°54'0 0.0
2018-Aug-14 18:25N 43°26' E 004°54'0 0.0
2018-Aug-14 17:58N 43°26' E 004°54'0 0.0
2018-Aug-14 17:28N 43°26' E 004°54'0 0.0
2018-Aug-14 16:58N 43°26' E 004°54'0 0.0
2018-Aug-14 16:28N 43°26' E 004°54'0 0.0
2018-Aug-14 15:58N 43°26' E 004°54'0 0.0
2018-Aug-14 15:28N 43°26' E 004°54'0 0.0
2018-Aug-14 14:58N 43°26' E 004°54'0 0.0
2018-Aug-14 14:28N 43°26' E 004°54'0 0.0
2018-Aug-14 13:58N 43°26' E 004°54'0 0.0
2018-Aug-14 13:28N 43°26' E 004°54'0 0.0
2018-Aug-14 12:58N 43°26' E 004°54'0 0.0
2018-Aug-14 12:28N 43°26' E 004°54'0 0.0
2018-Aug-14 11:58N 43°26' E 004°54'0 0.0
2018-Aug-14 11:25N 43°26' E 004°54'0 0.0
2018-Aug-14 10:58N 43°26' E 004°54'0 0.0
2018-Aug-14 10:28N 43°26' E 004°54'0 0.0
2018-Aug-14 09:58N 43°26' E 004°54'0 0.0
2018-Aug-14 09:28N 43°26' E 004°54'0 0.0
2018-Aug-14 08:58N 43°26' E 004°54'0 0.0
2018-Aug-14 08:28N 43°26' E 004°54'0 0.0
2018-Aug-14 07:58N 43°26' E 004°54'0 0.0
2018-Aug-14 07:28N 43°26' E 004°54'0 0.0
2018-Aug-14 06:58N 43°26' E 004°54'0 0.0
2018-Aug-14 06:28N 43°26' E 004°54'0 0.0
2018-Aug-14 05:58N 43°26' E 004°54'0 0.0
2018-Aug-14 05:28N 43°26' E 004°54'0 0.0
2018-Aug-14 04:58N 43°26' E 004°54'0 0.0
2018-Aug-14 04:28N 43°26' E 004°54'0 0.0
2018-Aug-14 03:58N 43°26' E 004°54'0 0.0
2018-Aug-14 03:28N 43°26' E 004°54'0 0.0
2018-Aug-14 02:58N 43°26' E 004°54'0 0.0
2018-Aug-14 02:28N 43°26' E 004°54'0 0.0
2018-Aug-14 01:55N 43°26' E 004°54'0 0.0
2018-Aug-14 01:28N 43°26' E 004°54'0 0.0
2018-Aug-14 00:55N 43°26' E 004°54'0 0.0
2018-Aug-14 00:28N 43°26' E 004°54'0 0.0
2018-Aug-13 23:58N 43°26' E 004°54'0 0.0
2018-Aug-13 23:28N 43°26' E 004°54'0 0.0
2018-Aug-13 22:58N 43°26' E 004°54'0 0.0
2018-Aug-13 22:28N 43°26' E 004°54'0 0.0
2018-Aug-13 21:58N 43°26' E 004°54'0 0.0
2018-Aug-13 21:28N 43°26' E 004°54'0 0.0
2018-Aug-13 20:58N 43°26' E 004°54'0 0.0
2018-Aug-13 20:28N 43°26' E 004°54'0 0.0
2018-Aug-13 19:55N 43°26' E 004°54'0 0.0
2018-Aug-13 19:25N 43°26' E 004°54'0 0.0
2018-Aug-13 18:58N 43°26' E 004°54'0 0.0
2018-Aug-13 18:25N 43°26' E 004°54'0 0.0
2018-Aug-13 17:58N 43°26' E 004°54'0 0.0
2018-Aug-13 17:28N 43°26' E 004°54'0 0.0
2018-Aug-13 16:58N 43°26' E 004°54'0 0.0
2018-Aug-13 16:28N 43°26' E 004°54'0 0.0
2018-Aug-13 15:58N 43°26' E 004°54'0 0.0
2018-Aug-13 15:25N 43°26' E 004°54'0 0.0
2018-Aug-13 14:58N 43°26' E 004°54'0 0.0
2018-Aug-13 14:28N 43°26' E 004°54'0 0.0
2018-Aug-13 13:58N 43°26' E 004°54'0 0.0
2018-Aug-13 13:28N 43°26' E 004°54'0 0.0
2018-Aug-13 12:55N 43°26' E 004°54'0 0.5
2018-Aug-13 12:30N 43°25' E 004°54'2 3.8
2018-Aug-13 12:00N 43°25' E 004°56'0 0.1
2018-Aug-13 11:29N 43°25' E 004°56'0 0.0
2018-Aug-13 10:59N 43°25' E 004°56'0 0.0
2018-Aug-13 10:29N 43°25' E 004°56'0 0.0
2018-Aug-13 09:59N 43°25' E 004°56'0 0.0
2018-Aug-13 09:26N 43°25' E 004°56'0 0.0
2018-Aug-13 08:53N 43°25' E 004°56'0 0.0
2018-Aug-13 08:29N 43°25' E 004°56'0 0.0
2018-Aug-13 07:59N 43°25' E 004°56'0 0.0
2018-Aug-13 07:29N 43°25' E 004°56'0 0.0
2018-Aug-13 06:59N 43°25' E 004°56'0 0.0
2018-Aug-13 06:26N 43°25' E 004°56'0 0.0
2018-Aug-13 05:59N 43°25' E 004°56'0 0.0
2018-Aug-13 05:26N 43°25' E 004°56'0 0.0
2018-Aug-13 04:59N 43°25' E 004°56'0 0.0
2018-Aug-13 04:29N 43°25' E 004°56'0 0.1
2018-Aug-13 03:59N 43°25' E 004°56'0 0.2
2018-Aug-13 03:20N 43°25' E 004°56'0 0.3
2018-Aug-13 02:59N 43°25' E 004°56'0 0.1
2018-Aug-13 02:29N 43°25' E 004°56'0 0.1
2018-Aug-13 01:59N 43°25' E 004°56'0 0.1
2018-Aug-13 01:23N 43°25' E 004°56'0 0.1
2018-Aug-13 00:59N 43°25' E 004°56'0 0.1
2018-Aug-13 00:29N 43°25' E 004°56'0 0.1
2018-Aug-12 23:56N 43°25' E 004°56'0 0.0
2018-Aug-12 23:29N 43°25' E 004°56'0 0.0
2018-Aug-12 22:59N 43°25' E 004°56'0 0.0
2018-Aug-12 22:29N 43°25' E 004°56'0 0.0
2018-Aug-12 21:59N 43°25' E 004°56'0 0.0
2018-Aug-12 21:29N 43°25' E 004°56'0 0.0
2018-Aug-12 20:59N 43°25' E 004°56'0 0.0
2018-Aug-12 20:26N 43°25' E 004°56'0 0.0
2018-Aug-12 19:59N 43°25' E 004°56'0 0.0
2018-Aug-12 19:29N 43°25' E 004°56'0 0.0
2018-Aug-12 18:59N 43°25' E 004°56'0 0.0
2018-Aug-12 18:29N 43°25' E 004°56'0 0.0
2018-Aug-12 17:59N 43°25' E 004°56'0 0.0
2018-Aug-12 17:29N 43°25' E 004°56'0 0.0
2018-Aug-12 16:59N 43°25' E 004°56'0 0.0
2018-Aug-12 16:29N 43°25' E 004°56'0 0.0
2018-Aug-12 15:59N 43°25' E 004°56'0 0.0
2018-Aug-12 15:29N 43°25' E 004°56'0 0.0
2018-Aug-12 14:59N 43°25' E 004°56'0 0.0
2018-Aug-12 14:29N 43°25' E 004°56'0 0.0
2018-Aug-12 13:56N 43°25' E 004°56'0 0.0
2018-Aug-12 13:29N 43°25' E 004°56'0 0.0
2018-Aug-12 12:59N 43°25' E 004°56'0 0.0
2018-Aug-12 12:29N 43°25' E 004°56'0 0.0
2018-Aug-12 11:56N 43°25' E 004°56'0 0.0
2018-Aug-12 11:29N 43°25' E 004°56'0 0.0
2018-Aug-12 10:59N 43°25' E 004°56'0 0.0
2018-Aug-12 10:29N 43°25' E 004°56'0 0.0
2018-Aug-12 09:59N 43°25' E 004°56'0 0.0
2018-Aug-12 09:26N 43°25' E 004°56'0 0.0
2018-Aug-12 08:59N 43°25' E 004°56'0 0.0
2018-Aug-12 08:29N 43°25' E 004°56'0 0.0
2018-Aug-12 07:56N 43°25' E 004°56'0 0.0
2018-Aug-12 07:29N 43°25' E 004°56'0 0.0
2018-Aug-12 06:59N 43°25' E 004°56'0 0.1
2018-Aug-12 06:26N 43°25' E 004°56'0 0.1
2018-Aug-12 05:59N 43°25' E 004°56'0 0.1
2018-Aug-12 05:29N 43°25' E 004°56'0 0.1
2018-Aug-12 04:59N 43°25' E 004°56'0 0.1
2018-Aug-12 04:26N 43°25' E 004°56'0 0.0
2018-Aug-12 03:56N 43°25' E 004°56'0 0.0
2018-Aug-12 03:29N 43°25' E 004°56'0 0.0
2018-Aug-12 02:59N 43°25' E 004°56'0 0.0
2018-Aug-12 02:29N 43°25' E 004°56'0 0.0
2018-Aug-12 01:59N 43°25' E 004°56'0 0.0
2018-Aug-12 01:29N 43°25' E 004°56'0 0.0
2018-Aug-12 00:59N 43°25' E 004°56'0 0.0
2018-Aug-12 00:29N 43°25' E 004°56'0 0.0
2018-Aug-11 23:59N 43°25' E 004°56'0 0.0
2018-Aug-11 23:29N 43°25' E 004°56'0 0.0
2018-Aug-11 22:59N 43°25' E 004°56'0 0.0
2018-Aug-11 22:29N 43°25' E 004°56'0 0.0
2018-Aug-11 21:59N 43°25' E 004°56'0 0.0
2018-Aug-11 21:26N 43°25' E 004°56'0 0.0
2018-Aug-11 20:59N 43°25' E 004°56'0 0.0
2018-Aug-11 20:29N 43°25' E 004°56'0 0.1
2018-Aug-11 19:59N 43°25' E 004°56'0 0.0
2018-Aug-11 19:29N 43°25' E 004°56'0 0.0
2018-Aug-11 18:50N 43°25' E 004°56'0 0.0
2018-Aug-11 18:29N 43°25' E 004°56'0 0.0
2018-Aug-11 17:59N 43°25' E 004°56'0 0.0
2018-Aug-11 17:26N 43°25' E 004°56'0 0.0
2018-Aug-11 16:59N 43°25' E 004°56'0 0.0
2018-Aug-11 16:29N 43°25' E 004°56'0 0.0
2018-Aug-11 15:59N 43°25' E 004°56'0 0.0
2018-Aug-11 15:29N 43°25' E 004°56'0 0.0
2018-Aug-11 14:59N 43°25' E 004°56'0 0.0
2018-Aug-11 14:29N 43°25' E 004°56'0 0.0
2018-Aug-11 13:59N 43°25' E 004°56'0 0.0
2018-Aug-11 13:23N 43°25' E 004°56'0 0.0
2018-Aug-11 12:56N 43°25' E 004°56'0 0.0
2018-Aug-11 12:29N 43°25' E 004°56'0 0.1
2018-Aug-11 11:56N 43°25' E 004°56'0 0.0
2018-Aug-11 11:29N 43°25' E 004°56'0 0.0
2018-Aug-11 10:59N 43°25' E 004°56'0 0.0
2018-Aug-11 10:23N 43°25' E 004°56'0 0.0
2018-Aug-11 09:59N 43°25' E 004°56'0 0.0
2018-Aug-11 09:29N 43°25' E 004°56'0 0.0
2018-Aug-11 08:59N 43°25' E 004°56'0 0.0
2018-Aug-11 08:29N 43°25' E 004°56'0 0.0
2018-Aug-11 07:59N 43°25' E 004°56'0 0.0
2018-Aug-11 07:29N 43°25' E 004°56'0 0.0
2018-Aug-11 06:59N 43°25' E 004°56'0 0.0
2018-Aug-11 06:29N 43°25' E 004°56'0 0.0
2018-Aug-11 05:56N 43°25' E 004°56'0 0.0
2018-Aug-11 05:29N 43°25' E 004°56'0 0.0
2018-Aug-11 04:56N 43°25' E 004°56'0 0.0
2018-Aug-11 04:29N 43°25' E 004°56'  
Track history (hours):
 
Tides and Currents Weather Stations Pressure Air Temp Water Temp Dewpoint Dewpoint Depression Visibility Wind Speed Wind Dir Waves Ship Positions

Faust

Last reported at 2018-Aug-21 04:03 UTC. Time now 2018-Aug-21 04:21 UTC.
Position N 41°36' E 002°50'.

Length 99 m; draft 4.1 m.

Type: Ship. MMSI: 304302000.

Date/timePositionNaut miles runAvg speedWind from/ knotsBaromVisibWave heightAir tempDewpointWater temp
2018-Aug-21 04:03N 41°36' E 002°50'110.8
2018-Aug-21 04:00N 41°36' E 002°49'1510.6
2018-Aug-21 02:34N 41°26' E 002°33'110.8
2018-Aug-21 02:29N 41°26' E 002°32'510.9
2018-Aug-21 02:03N 41°23' E 002°27'010.9
2018-Aug-21 02:00N 41°23' E 002°27'510.9
2018-Aug-21 01:30N 41°19' E 002°21'511.3
2018-Aug-21 01:03N 41°16' E 002°15'111.3
2018-Aug-21 01:00N 41°16' E 002°15'510.9
2018-Aug-21 00:30N 41°13' E 002°09'510.7
2018-Aug-21 00:03N 41°10' E 002°03'110.8
2018-Aug-21 00:00N 41°10' E 002°03'510.7
2018-Aug-20 23:30N 41°07' E 001°57'510.7
2018-Aug-20 23:03N 41°04' E 001°51'110.6
2018-Aug-20 23:00N 41°04' E 001°51'510.6
2018-Aug-20 22:30N 41°01' E 001°45'11911.3
2018-Aug-20 11:56N 39°39' W 000°08'4 8.3
2018-Aug-20 11:30N 39°38' W 000°13'  
2018-Aug-18 05:36N 39°38' W 000°13'2 8.2
2018-Aug-18 05:25N 39°37' W 000°12'122 8.3
2018-Aug-17 14:38N 41°01' E 001°43'1 9.3
2018-Aug-17 14:30N 41°02' E 001°45'9 9.3
2018-Aug-17 13:30N 41°07' E 001°55'5 9.4
2018-Aug-17 13:00N 41°10' E 002°00'4 8.9
2018-Aug-17 12:30N 41°12' E 002°05'4 8.7
2018-Aug-17 12:00N 41°14' E 002°10'4 9.1
2018-Aug-17 11:30N 41°16' E 002°15'5 9.3
2018-Aug-17 11:00N 41°19' E 002°20'5 9.1
2018-Aug-17 10:29N 41°22' E 002°25'14210.0
2018-Aug-16 20:19N 43°04' E 004°39'410.1
2018-Aug-16 19:58N 43°06' E 004°42'510.0
2018-Aug-16 19:27N 43°10' E 004°47'11 9.9
2018-Aug-16 18:23N 43°18' E 004°57'3 8.6
2018-Aug-16 17:59N 43°21' E 004°58'4 9.1
2018-Aug-16 17:30N 43°24' E 004°54'2 2.8
2018-Aug-16 16:55N 43°26' E 004°54'0 0.0
2018-Aug-16 16:28N 43°26' E 004°54'0 0.0
2018-Aug-16 15:58N 43°26' E 004°54'0 0.0
2018-Aug-16 15:28N 43°26' E 004°54'0 0.0
2018-Aug-16 14:55N 43°26' E 004°54'0 0.0
2018-Aug-16 14:28N 43°26' E 004°54'0 0.0
2018-Aug-16 13:58N 43°26' E 004°54'0 0.0
2018-Aug-16 13:28N 43°26' E 004°54'0 0.0
2018-Aug-16 12:55N 43°26' E 004°54'0 0.0
2018-Aug-16 12:28N 43°26' E 004°54'0 0.0
2018-Aug-16 11:58N 43°26' E 004°54'0 0.0
2018-Aug-16 11:28N 43°26' E 004°54'0 0.0
2018-Aug-16 10:58N 43°26' E 004°54'0 0.0
2018-Aug-16 10:28N 43°26' E 004°54'0 0.0
2018-Aug-16 09:58N 43°26' E 004°54'0 0.0
2018-Aug-16 09:28N 43°26' E 004°54'0 0.0
2018-Aug-16 08:58N 43°26' E 004°54'0 0.0
2018-Aug-16 08:28N 43°26' E 004°54'0 0.0
2018-Aug-16 07:58N 43°26' E 004°54'0 0.0
2018-Aug-16 07:28N 43°26' E 004°54'0 0.0
2018-Aug-16 06:58N 43°26' E 004°54'0 0.0
2018-Aug-16 06:28N 43°26' E 004°54'0 0.0
2018-Aug-16 05:58N 43°26' E 004°54'0 0.0
2018-Aug-16 05:28N 43°26' E 004°54'0 0.0
2018-Aug-16 04:58N 43°26' E 004°54'0 0.0
2018-Aug-16 04:28N 43°26' E 004°54'0 0.0
2018-Aug-16 03:58N 43°26' E 004°54'0 0.0
2018-Aug-16 03:28N 43°26' E 004°54'0 0.0
2018-Aug-16 02:58N 43°26' E 004°54'0 0.0
2018-Aug-16 02:28N 43°26' E 004°54'0 0.0
2018-Aug-16 01:58N 43°26' E 004°54'0 0.0
2018-Aug-16 01:28N 43°26' E 004°54'0 0.0
2018-Aug-16 00:58N 43°26' E 004°54'0 0.0
2018-Aug-16 00:28N 43°26' E 004°54'0 0.0
2018-Aug-15 23:58N 43°26' E 004°54'0 0.0
2018-Aug-15 23:28N 43°26' E 004°54'0 0.0
2018-Aug-15 22:58N 43°26' E 004°54'0 0.0
2018-Aug-15 22:28N 43°26' E 004°54'0 0.0
2018-Aug-15 21:58N 43°26' E 004°54'0 0.0
2018-Aug-15 21:28N 43°26' E 004°54'0 0.0
2018-Aug-15 20:58N 43°26' E 004°54'0 0.0
2018-Aug-15 20:28N 43°26' E 004°54'0 0.0
2018-Aug-15 19:58N 43°26' E 004°54'0 0.0
2018-Aug-15 19:28N 43°26' E 004°54'0 0.0
2018-Aug-15 18:58N 43°26' E 004°54'0 0.0
2018-Aug-15 18:28N 43°26' E 004°54'0 0.0
2018-Aug-15 17:58N 43°26' E 004°54'0 0.0
2018-Aug-15 17:28N 43°26' E 004°54'0 0.0
2018-Aug-15 16:58N 43°26' E 004°54'0 0.0
2018-Aug-15 16:25N 43°26' E 004°54'0 0.0
2018-Aug-15 15:58N 43°26' E 004°54'0 0.0
2018-Aug-15 15:28N 43°26' E 004°54'0 0.0
2018-Aug-15 14:58N 43°26' E 004°54'0 0.0
2018-Aug-15 14:28N 43°26' E 004°54'0 0.0
2018-Aug-15 13:58N 43°26' E 004°54'0 0.0
2018-Aug-15 13:25N 43°26' E 004°54'0 0.0
2018-Aug-15 12:58N 43°26' E 004°54'0 0.0
2018-Aug-15 12:28N 43°26' E 004°54'0 0.0
2018-Aug-15 11:58N 43°26' E 004°54'0 0.0
2018-Aug-15 11:28N 43°26' E 004°54'0 0.0
2018-Aug-15 10:58N 43°26' E 004°54'0 0.0
2018-Aug-15 10:28N 43°26' E 004°54'0 0.0
2018-Aug-15 09:58N 43°26' E 004°54'0 0.0
2018-Aug-15 09:28N 43°26' E 004°54'0 0.0
2018-Aug-15 08:58N 43°26' E 004°54'0 0.0
2018-Aug-15 08:25N 43°26' E 004°54'0 0.0
2018-Aug-15 07:58N 43°26' E 004°54'0 0.0
2018-Aug-15 07:28N 43°26' E 004°54'0 0.0
2018-Aug-15 06:58N 43°26' E 004°54'0 0.0
2018-Aug-15 06:28N 43°26' E 004°54'0 0.0
2018-Aug-15 05:58N 43°26' E 004°54'0 0.0
2018-Aug-15 05:28N 43°26' E 004°54'0 0.0
2018-Aug-15 04:58N 43°26' E 004°54'0 0.0
2018-Aug-15 04:28N 43°26' E 004°54'0 0.0
2018-Aug-15 03:58N 43°26' E 004°54'0 0.0
2018-Aug-15 03:28N 43°26' E 004°54'0 0.0
2018-Aug-15 02:58N 43°26' E 004°54'0 0.0
2018-Aug-15 02:28N 43°26' E 004°54'0 0.0
2018-Aug-15 01:58N 43°26' E 004°54'0 0.0
2018-Aug-15 01:28N 43°26' E 004°54'0 0.0
2018-Aug-15 00:58N 43°26' E 004°54'0 0.0
2018-Aug-15 00:28N 43°26' E 004°54'0 0.0
2018-Aug-14 23:58N 43°26' E 004°54'0 0.0
2018-Aug-14 23:28N 43°26' E 004°54'0 0.0
2018-Aug-14 22:58N 43°26' E 004°54'0 0.0
2018-Aug-14 22:28N 43°26' E 004°54'0 0.0
2018-Aug-14 21:55N 43°26' E 004°54'0 0.0
2018-Aug-14 21:28N 43°26' E 004°54'0 0.0
2018-Aug-14 20:58N 43°26' E 004°54'0 0.0
2018-Aug-14 20:28N 43°26' E 004°54'0 0.0
2018-Aug-14 19:58N 43°26' E 004°54'0 0.0
2018-Aug-14 19:28N 43°26' E 004°54'0 0.0
2018-Aug-14 18:58N 43°26' E 004°54'0 0.0
2018-Aug-14 18:25N 43°26' E 004°54'0 0.0
2018-Aug-14 17:58N 43°26' E 004°54'0 0.0
2018-Aug-14 17:28N 43°26' E 004°54'0 0.0
2018-Aug-14 16:58N 43°26' E 004°54'0 0.0
2018-Aug-14 16:28N 43°26' E 004°54'0 0.0
2018-Aug-14 15:58N 43°26' E 004°54'0 0.0
2018-Aug-14 15:28N 43°26' E 004°54'0 0.0
2018-Aug-14 14:58N 43°26' E 004°54'0 0.0
2018-Aug-14 14:28N 43°26' E 004°54'0 0.0
2018-Aug-14 13:58N 43°26' E 004°54'0 0.0
2018-Aug-14 13:28N 43°26' E 004°54'0 0.0
2018-Aug-14 12:58N 43°26' E 004°54'0 0.0
2018-Aug-14 12:28N 43°26' E 004°54'0 0.0
2018-Aug-14 11:58N 43°26' E 004°54'0 0.0
2018-Aug-14 11:25N 43°26' E 004°54'0 0.0
2018-Aug-14 10:58N 43°26' E 004°54'0 0.0
2018-Aug-14 10:28N 43°26' E 004°54'0 0.0
2018-Aug-14 09:58N 43°26' E 004°54'0 0.0
2018-Aug-14 09:28N 43°26' E 004°54'0 0.0
2018-Aug-14 08:58N 43°26' E 004°54'0 0.0
2018-Aug-14 08:28N 43°26' E 004°54'0 0.0
2018-Aug-14 07:58N 43°26' E 004°54'0 0.0
2018-Aug-14 07:28N 43°26' E 004°54'0 0.0
2018-Aug-14 06:58N 43°26' E 004°54'0 0.0
2018-Aug-14 06:28N 43°26' E 004°54'0 0.0
2018-Aug-14 05:58N 43°26' E 004°54'0 0.0
2018-Aug-14 05:28N 43°26' E 004°54'0 0.0
2018-Aug-14 04:58N 43°26' E 004°54'0 0.0
2018-Aug-14 04:28N 43°26' E 004°54'0 0.0
2018-Aug-14 03:58N 43°26' E 004°54'0 0.0
2018-Aug-14 03:28N 43°26' E 004°54'0 0.0
2018-Aug-14 02:58N 43°26' E 004°54'0 0.0
2018-Aug-14 02:28N 43°26' E 004°54'0 0.0
2018-Aug-14 01:55N 43°26' E 004°54'0 0.0
2018-Aug-14 01:28N 43°26' E 004°54'0 0.0
2018-Aug-14 00:55N 43°26' E 004°54'0 0.0
2018-Aug-14 00:28N 43°26' E 004°54'0 0.0
2018-Aug-13 23:58N 43°26' E 004°54'0 0.0
2018-Aug-13 23:28N 43°26' E 004°54'0 0.0
2018-Aug-13 22:58N 43°26' E 004°54'0 0.0
2018-Aug-13 22:28N 43°26' E 004°54'0 0.0
2018-Aug-13 21:58N 43°26' E 004°54'0 0.0
2018-Aug-13 21:28N 43°26' E 004°54'0 0.0
2018-Aug-13 20:58N 43°26' E 004°54'0 0.0
2018-Aug-13 20:28N 43°26' E 004°54'0 0.0
2018-Aug-13 19:55N 43°26' E 004°54'0 0.0
2018-Aug-13 19:25N 43°26' E 004°54'0 0.0
2018-Aug-13 18:58N 43°26' E 004°54'0 0.0
2018-Aug-13 18:25N 43°26' E 004°54'0 0.0
2018-Aug-13 17:58N 43°26' E 004°54'0 0.0
2018-Aug-13 17:28N 43°26' E 004°54'0 0.0
2018-Aug-13 16:58N 43°26' E 004°54'0 0.0
2018-Aug-13 16:28N 43°26' E 004°54'0 0.0
2018-Aug-13 15:58N 43°26' E 004°54'0 0.0
2018-Aug-13 15:25N 43°26' E 004°54'0 0.0
2018-Aug-13 14:58N 43°26' E 004°54'0 0.0
2018-Aug-13 14:28N 43°26' E 004°54'0 0.0
2018-Aug-13 13:58N 43°26' E 004°54'0 0.0
2018-Aug-13 13:28N 43°26' E 004°54'0 0.0
2018-Aug-13 12:55N 43°26' E 004°54'0 0.5
2018-Aug-13 12:30N 43°25' E 004°54'2 3.8
2018-Aug-13 12:00N 43°25' E 004°56'0 0.1
2018-Aug-13 11:29N 43°25' E 004°56'0 0.0
2018-Aug-13 10:59N 43°25' E 004°56'0 0.0
2018-Aug-13 10:29N 43°25' E 004°56'0 0.0
2018-Aug-13 09:59N 43°25' E 004°56'0 0.0
2018-Aug-13 09:26N 43°25' E 004°56'0 0.0
2018-Aug-13 08:53N 43°25' E 004°56'0 0.0
2018-Aug-13 08:29N 43°25' E 004°56'0 0.0
2018-Aug-13 07:59N 43°25' E 004°56'0 0.0
2018-Aug-13 07:29N 43°25' E 004°56'0 0.0
2018-Aug-13 06:59N 43°25' E 004°56'0 0.0
2018-Aug-13 06:26N 43°25' E 004°56'0 0.0
2018-Aug-13 05:59N 43°25' E 004°56'0 0.0
2018-Aug-13 05:26N 43°25' E 004°56'0 0.0
2018-Aug-13 04:59N 43°25' E 004°56'0 0.0
2018-Aug-13 04:29N 43°25' E 004°56'0 0.1
2018-Aug-13 03:59N 43°25' E 004°56'0 0.2
2018-Aug-13 03:20N 43°25' E 004°56'0 0.3
2018-Aug-13 02:59N 43°25' E 004°56'0 0.1
2018-Aug-13 02:29N 43°25' E 004°56'0 0.1
2018-Aug-13 01:59N 43°25' E 004°56'0 0.1
2018-Aug-13 01:23N 43°25' E 004°56'0 0.1
2018-Aug-13 00:59N 43°25' E 004°56'0 0.1
2018-Aug-13 00:29N 43°25' E 004°56'0 0.1
2018-Aug-12 23:56N 43°25' E 004°56'0 0.0
2018-Aug-12 23:29N 43°25' E 004°56'0 0.0
2018-Aug-12 22:59N 43°25' E 004°56'0 0.0
2018-Aug-12 22:29N 43°25' E 004°56'0 0.0
2018-Aug-12 21:59N 43°25' E 004°56'0 0.0
2018-Aug-12 21:29N 43°25' E 004°56'0 0.0
2018-Aug-12 20:59N 43°25' E 004°56'0 0.0
2018-Aug-12 20:26N 43°25' E 004°56'0 0.0
2018-Aug-12 19:59N 43°25' E 004°56'0 0.0
2018-Aug-12 19:29N 43°25' E 004°56'0 0.0
2018-Aug-12 18:59N 43°25' E 004°56'0 0.0
2018-Aug-12 18:29N 43°25' E 004°56'0 0.0
2018-Aug-12 17:59N 43°25' E 004°56'0 0.0
2018-Aug-12 17:29N 43°25' E 004°56'0 0.0
2018-Aug-12 16:59N 43°25' E 004°56'0 0.0
2018-Aug-12 16:29N 43°25' E 004°56'0 0.0
2018-Aug-12 15:59N 43°25' E 004°56'0 0.0
2018-Aug-12 15:29N 43°25' E 004°56'0 0.0
2018-Aug-12 14:59N 43°25' E 004°56'0 0.0
2018-Aug-12 14:29N 43°25' E 004°56'0 0.0
2018-Aug-12 13:56N 43°25' E 004°56'0 0.0
2018-Aug-12 13:29N 43°25' E 004°56'0 0.0
2018-Aug-12 12:59N 43°25' E 004°56'0 0.0
2018-Aug-12 12:29N 43°25' E 004°56'0 0.0
2018-Aug-12 11:56N 43°25' E 004°56'0 0.0
2018-Aug-12 11:29N 43°25' E 004°56'0 0.0
2018-Aug-12 10:59N 43°25' E 004°56'0 0.0
2018-Aug-12 10:29N 43°25' E 004°56'0 0.0
2018-Aug-12 09:59N 43°25' E 004°56'0 0.0
2018-Aug-12 09:26N 43°25' E 004°56'0 0.0
2018-Aug-12 08:59N 43°25' E 004°56'0 0.0
2018-Aug-12 08:29N 43°25' E 004°56'0 0.0
2018-Aug-12 07:56N 43°25' E 004°56'0 0.0
2018-Aug-12 07:29N 43°25' E 004°56'0 0.0
2018-Aug-12 06:59N 43°25' E 004°56'0 0.1
2018-Aug-12 06:26N 43°25' E 004°56'0 0.1
2018-Aug-12 05:59N 43°25' E 004°56'0 0.1
2018-Aug-12 05:29N 43°25' E 004°56'0 0.1
2018-Aug-12 04:59N 43°25' E 004°56'0 0.1
2018-Aug-12 04:26N 43°25' E 004°56'0 0.0
2018-Aug-12 03:56N 43°25' E 004°56'0 0.0
2018-Aug-12 03:29N 43°25' E 004°56'0 0.0
2018-Aug-12 02:59N 43°25' E 004°56'0 0.0
2018-Aug-12 02:29N 43°25' E 004°56'0 0.0
2018-Aug-12 01:59N 43°25' E 004°56'0 0.0
2018-Aug-12 01:29N 43°25' E 004°56'0 0.0
2018-Aug-12 00:59N 43°25' E 004°56'0 0.0
2018-Aug-12 00:29N 43°25' E 004°56'0 0.0
2018-Aug-11 23:59N 43°25' E 004°56'0 0.0
2018-Aug-11 23:29N 43°25' E 004°56'0 0.0
2018-Aug-11 22:59N 43°25' E 004°56'0 0.0
2018-Aug-11 22:29N 43°25' E 004°56'0 0.0
2018-Aug-11 21:59N 43°25' E 004°56'0 0.0
2018-Aug-11 21:26N 43°25' E 004°56'0 0.0
2018-Aug-11 20:59N 43°25' E 004°56'0 0.0
2018-Aug-11 20:29N 43°25' E 004°56'0 0.1
2018-Aug-11 19:59N 43°25' E 004°56'0 0.0
2018-Aug-11 19:29N 43°25' E 004°56'0 0.0
2018-Aug-11 18:50N 43°25' E 004°56'0 0.0
2018-Aug-11 18:29N 43°25' E 004°56'0 0.0
2018-Aug-11 17:59N 43°25' E 004°56'0 0.0
2018-Aug-11 17:26N 43°25' E 004°56'0 0.0
2018-Aug-11 16:59N 43°25' E 004°56'0 0.0
2018-Aug-11 16:29N 43°25' E 004°56'0 0.0
2018-Aug-11 15:59N 43°25' E 004°56'0 0.0
2018-Aug-11 15:29N 43°25' E 004°56'0 0.0
2018-Aug-11 14:59N 43°25' E 004°56'0 0.0
2018-Aug-11 14:29N 43°25' E 004°56'0 0.0
2018-Aug-11 13:59N 43°25' E 004°56'0 0.0
2018-Aug-11 13:23N 43°25' E 004°56'0 0.0
2018-Aug-11 12:56N 43°25' E 004°56'0 0.0
2018-Aug-11 12:29N 43°25' E 004°56'0 0.1
2018-Aug-11 11:56N 43°25' E 004°56'0 0.0
2018-Aug-11 11:29N 43°25' E 004°56'0 0.0
2018-Aug-11 10:59N 43°25' E 004°56'0 0.0
2018-Aug-11 10:23N 43°25' E 004°56'0 0.0
2018-Aug-11 09:59N 43°25' E 004°56'0 0.0
2018-Aug-11 09:29N 43°25' E 004°56'0 0.0
2018-Aug-11 08:59N 43°25' E 004°56'0 0.0
2018-Aug-11 08:29N 43°25' E 004°56'0 0.0
2018-Aug-11 07:59N 43°25' E 004°56'0 0.0
2018-Aug-11 07:29N 43°25' E 004°56'0 0.0
2018-Aug-11 06:59N 43°25' E 004°56'0 0.0
2018-Aug-11 06:29N 43°25' E 004°56'0 0.0
2018-Aug-11 05:56N 43°25' E 004°56'0 0.0
2018-Aug-11 05:29N 43°25' E 004°56'0 0.0
2018-Aug-11 04:56N 43°25' E 004°56'0 0.0
2018-Aug-11 04:29N 43°25' E 004°56'  

Dump ship's entire track history